Time;durP1;ratioP1;P1;durP2;ratioP2;P2;SDS_P1;SDS_P2;PMS_P1;PMS_P2;Temp;Humidity;BMP_temperature;BMP_pressure;BME280_temperature;BME280_humidity;BME280_pressure;Samples;Min_cycle;Max_cycle;Signal;HPM_P1;HPM_P2
2022/06/27 00:02:11;;;;;;;4.70;3.10;;;;;;;24.59;45.09;99056.39;233385;1219;138881;-56
2022/06/27 00:07:14;;;;;;;4.40;3.00;;;;;;;24.56;45.12;99061.20;233560;1217;139069;-57
2022/06/27 00:12:17;;;;;;;4.70;3.00;;;;;;;24.50;45.32;99056.00;233654;1217;138724;-57
2022/06/27 00:17:20;;;;;;;6.30;3.40;;;;;;;24.49;45.38;99061.00;233416;1219;139373;-57
2022/06/27 00:22:23;;;;;;;6.30;3.40;;;;;;;24.44;45.53;99058.69;233569;1217;139069;-57
2022/06/27 00:27:26;;;;;;;4.00;3.20;;;;;;;24.40;45.69;99062.94;233523;1217;138961;-58
2022/06/27 00:32:29;;;;;;;5.80;3.30;;;;;;;24.32;45.71;99061.56;233532;1217;139152;-57
2022/06/27 00:37:32;;;;;;;3.60;3.10;;;;;;;24.27;45.91;99054.35;233525;1217;138602;-57
2022/06/27 00:42:35;;;;;;;4.80;3.00;;;;;;;24.20;46.02;99052.73;233457;1219;138908;-57
2022/06/27 00:47:40;;;;;;;5.80;3.20;;;;;;;24.17;46.12;99057.00;233583;1217;138928;-57
2022/06/27 00:52:43;;;;;;;4.20;2.70;;;;;;;24.08;46.23;99053.14;233742;1217;138471;-57
2022/06/27 00:57:47;;;;;;;6.60;3.70;;;;;;;24.02;46.38;99057.52;233460;1217;138444;-57
2022/06/27 01:02:50;;;;;;;6.10;3.20;;;;;;;23.99;46.58;99061.71;233384;1218;138642;-58
2022/06/27 01:07:53;;;;;;;7.70;3.00;;;;;;;23.92;46.75;99059.79;233541;1217;139159;-56
2022/06/27 01:12:56;;;;;;;5.10;2.90;;;;;;;23.84;46.81;99065.95;233656;1216;138223;-56
2022/06/27 01:17:59;;;;;;;7.00;3.20;;;;;;;23.79;47.10;99067.27;233523;1214;139186;-57
2022/06/27 01:23:03;;;;;;;6.70;3.00;;;;;;;23.71;47.22;99062.96;233565;1217;138992;-57
2022/06/27 01:28:07;;;;;;;6.00;3.50;;;;;;;23.64;47.41;99068.41;233541;1217;140798;-58
2022/06/27 01:33:11;;;;;;;9.60;3.00;;;;;;;23.59;47.53;99069.77;233549;1215;138957;-58
2022/06/27 01:38:14;;;;;;;4.70;3.00;;;;;;;23.55;47.65;99069.48;233574;1217;138658;-58
2022/06/27 01:43:17;;;;;;;5.10;3.30;;;;;;;23.46;47.81;99063.83;233511;1218;140256;-57
2022/06/27 01:48:21;;;;;;;6.40;3.30;;;;;;;23.42;48.01;99063.20;233496;1217;139078;-58
2022/06/27 01:53:26;;;;;;;6.60;3.00;;;;;;;23.33;48.05;99052.97;233593;1217;138860;-58
2022/06/27 01:58:29;;;;;;;4.70;3.10;;;;;;;23.28;48.32;99053.96;233362;1217;138771;-59
2022/06/27 02:03:32;;;;;;;5.50;3.20;;;;;;;23.20;48.31;99055.04;233480;1217;138431;-59
2022/06/27 02:08:41;;;;;;;6.20;3.30;;;;;;;23.12;48.49;99061.89;233494;1217;138843;-59
2022/06/27 02:13:45;;;;;;;3.70;2.90;;;;;;;23.06;48.67;99058.23;233627;1217;140153;-59
2022/06/27 02:18:51;;;;;;;5.60;3.40;;;;;;;23.00;48.81;99069.02;233507;1217;138791;-58
2022/06/27 02:23:55;;;;;;;4.20;3.20;;;;;;;22.93;48.88;99072.55;233432;1219;138662;-58
2022/06/27 02:29:00;;;;;;;7.00;3.50;;;;;;;22.85;49.12;99074.21;233638;1217;139202;-58
2022/06/27 02:34:05;;;;;;;7.60;3.50;;;;;;;22.75;49.29;99066.23;233812;1216;138729;-58
2022/06/27 02:39:12;;;;;;;5.30;3.40;;;;;;;22.73;49.47;99068.88;233490;1217;138579;-58
2022/06/27 02:44:15;;;;;;;4.50;3.30;;;;;;;22.64;49.66;99064.08;233080;1219;139244;-58
2022/06/27 02:49:20;;;;;;;6.00;3.50;;;;;;;22.59;49.81;99061.67;233429;1217;138765;-57
2022/06/27 02:54:35;;;;;;;;;;;;;;;22.55;49.87;99060.05;233716;1217;138635;-58
2022/06/27 02:59:51;;;;;;;68.90;58.30;;;;;;;22.50;50.26;99058.94;233605;1217;125114;-56
2022/06/27 03:04:56;;;;;;;9.30;8.00;;;;;;;22.91;52.21;99061.21;233523;1218;139037;-57
2022/06/27 03:10:03;;;;;;;35.00;30.70;;;;;;;23.36;52.05;99064.07;233523;1217;138867;-57
2022/06/27 03:15:08;;;;;;;12.80;9.40;;;;;;;23.56;51.59;99062.23;233632;1217;139255;-57
2022/06/27 03:20:11;;;;;;;12.60;7.90;;;;;;;23.66;50.80;99071.98;233423;1218;138899;-57
2022/06/27 03:25:27;;;;;;;41.30;33.80;;;;;;;23.64;50.53;99067.30;233377;1219;138682;-56
2022/06/27 03:30:32;;;;;;;;;;;;;;;23.71;50.65;99072.71;233424;1217;140397;-57
2022/06/27 03:35:35;;;;;;;138.10;111.60;;;;;;;23.80;50.60;99071.45;233722;1217;125000;-58
2022/06/27 03:40:39;;;;;;;23.30;19.20;;;;;;;23.92;50.44;99072.66;233548;1218;138997;-57
2022/06/27 03:45:42;;;;;;;10.00;7.90;;;;;;;23.97;50.12;99078.13;233010;1219;138435;-58
2022/06/27 03:50:46;;;;;;;11.00;9.10;;;;;;;23.96;49.97;99087.48;233545;1217;138240;-58
2022/06/27 03:55:49;;;;;;;11.50;6.90;;;;;;;23.99;49.99;99089.20;233591;1217;139337;-58
2022/06/27 04:00:52;;;;;;;22.00;17.30;;;;;;;24.04;49.90;99095.08;233460;1217;138510;-58
2022/06/27 04:05:55;;;;;;;11.00;6.90;;;;;;;24.13;49.87;99094.65;233347;1219;139685;-56
2022/06/27 04:10:58;;;;;;;11.10;7.30;;;;;;;24.16;49.72;99097.55;233495;1217;138702;-57
2022/06/27 04:16:05;;;;;;;8.20;4.50;;;;;;;24.15;49.45;99095.86;233530;1217;139253;-56
2022/06/27 04:21:27;;;;;;;5.80;3.90;;;;;;;23.97;49.13;99095.05;233477;1217;139312;-59
2022/06/27 04:26:37;;;;;;;7.70;4.10;;;;;;;23.83;49.24;99097.66;233379;1218;138857;-57
2022/06/27 04:31:40;;;;;;;10.50;5.10;;;;;;;23.77;49.45;99102.11;233556;1217;140801;-60
2022/06/27 04:36:45;;;;;;;8.70;4.30;;;;;;;23.76;49.64;99105.40;233640;1217;139194;-59
2022/06/27 04:41:50;;;;;;;8.80;4.20;;;;;;;23.68;49.53;99108.73;233370;1217;138449;-59
2022/06/27 04:46:54;;;;;;;12.60;4.80;;;;;;;23.65;49.76;99110.35;233461;1219;138447;-59
2022/06/27 04:52:15;;;;;;;9.40;4.90;;;;;;;23.72;49.98;99113.58;233512;1217;139190;-59
2022/06/27 04:57:19;;;;;;;11.10;4.60;;;;;;;23.77;50.08;99112.19;233561;1217;138782;-59
2022/06/27 05:02:23;;;;;;;6.70;4.40;;;;;;;23.86;50.11;99116.27;233427;1217;138861;-59
2022/06/27 05:07:28;;;;;;;7.90;4.60;;;;;;;23.89;50.00;99114.10;233441;1219;138594;-58
2022/06/27 05:12:32;;;;;;;13.60;4.60;;;;;;;23.98;49.99;99125.77;233544;1217;138798;-59
2022/06/27 05:17:36;;;;;;;10.20;4.00;;;;;;;24.01;49.94;99127.85;233557;1217;139267;-59
2022/06/27 05:22:40;;;;;;;8.20;4.30;;;;;;;24.04;50.00;99134.40;233557;1219;138948;-59
2022/06/27 05:27:44;;;;;;;14.20;4.90;;;;;;;24.08;49.92;99134.59;233364;1219;138838;-57
2022/06/27 05:32:48;;;;;;;11.20;5.40;;;;;;;24.14;49.97;99136.42;233539;1217;138951;-54
2022/06/27 05:37:51;;;;;;;7.50;4.90;;;;;;;24.12;49.96;99133.67;233556;1217;140316;-56
2022/06/27 05:42:54;;;;;;;12.70;5.40;;;;;;;24.14;49.97;99143.48;233377;1219;138692;-56
2022/06/27 05:48:00;;;;;;;11.40;5.80;;;;;;;24.18;50.11;99146.79;233494;1218;140037;-55
2022/06/27 05:53:06;;;;;;;12.20;5.40;;;;;;;24.25;50.19;99149.52;233577;1217;139789;-58
2022/06/27 05:58:10;;;;;;;15.00;5.20;;;;;;;24.30;50.20;99146.48;233739;1216;139419;-56
2022/06/27 06:03:13;;;;;;;7.90;5.30;;;;;;;24.43;50.26;99152.52;233342;1217;139469;-55
2022/06/27 06:08:21;;;;;;;9.80;4.40;;;;;;;24.48;50.17;99148.02;233370;1219;140052;-58
2022/06/27 06:13:25;;;;;;;13.40;5.20;;;;;;;24.62;50.23;99157.09;233680;1217;139297;-57
2022/06/27 06:18:32;;;;;;;16.10;5.40;;;;;;;24.68;50.21;99155.91;233611;1217;139195;-57
2022/06/27 06:23:36;;;;;;;10.50;5.30;;;;;;;24.80;50.13;99157.36;233549;1217;138765;-59
2022/06/27 06:28:40;;;;;;;8.10;4.70;;;;;;;24.86;50.08;99161.11;233495;1219;139536;-60
2022/06/27 06:33:44;;;;;;;8.30;4.70;;;;;;;24.91;49.97;99162.20;233488;1217;140098;-60
2022/06/27 06:38:50;;;;;;;5.60;4.60;;;;;;;24.95;50.02;99162.48;233777;1217;138635;-60
2022/06/27 06:43:54;;;;;;;9.70;4.70;;;;;;;25.07;50.01;99162.57;233496;1217;138649;-61
2022/06/27 06:49:26;;;;;;;8.50;4.80;;;;;;;25.15;49.89;99156.63;233499;1215;138601;-60
2022/06/27 06:54:31;;;;;;;8.60;5.20;;;;;;;25.28;49.70;99164.98;233610;1217;138902;-61
2022/06/27 06:59:35;;;;;;;8.60;4.70;;;;;;;25.38;49.68;99156.96;233603;1217;138265;-62
2022/06/27 07:04:39;;;;;;;8.70;5.50;;;;;;;25.47;49.72;99153.69;233597;1217;138793;-57
2022/06/27 07:09:43;;;;;;;10.20;5.30;;;;;;;25.56;49.62;99151.55;233324;1217;139521;-56
2022/06/27 07:14:47;;;;;;;10.60;5.20;;;;;;;25.70;49.51;99154.30;233482;1217;139983;-55
2022/06/27 07:19:52;;;;;;;10.10;4.50;;;;;;;25.76;49.28;99153.23;233462;1217;138782;-56
2022/06/27 07:24:55;;;;;;;11.50;4.90;;;;;;;25.81;49.27;99154.80;233448;1217;138764;-55
2022/06/27 07:29:59;;;;;;;10.00;4.90;;;;;;;25.91;49.16;99153.22;232995;1218;140042;-55
2022/06/27 07:35:03;;;;;;;73.40;60.20;;;;;;;26.04;49.17;99151.20;233516;1217;139044;-55
2022/06/27 07:40:07;;;;;;;9.20;6.30;;;;;;;26.11;49.12;99145.80;233359;1218;138990;-57
2022/06/27 07:45:14;;;;;;;10.30;5.20;;;;;;;26.16;48.89;99146.34;233409;1217;138907;-57
2022/06/27 07:50:37;;;;;;;13.20;6.10;;;;;;;26.17;48.70;99144.13;233568;1217;139279;-56
2022/06/27 07:55:46;;;;;;;8.50;5.00;;;;;;;26.30;48.74;99145.93;233431;1216;138793;-56
2022/06/27 08:00:49;;;;;;;11.90;5.50;;;;;;;26.40;48.75;99142.34;233594;1217;139043;-56
2022/06/27 08:05:53;;;;;;;13.80;5.80;;;;;;;26.52;48.26;99147.41;233443;1217;138685;-56
2022/06/27 08:10:56;;;;;;;9.50;5.10;;;;;;;26.62;47.97;99147.85;233586;1217;138848;-57
2022/06/27 08:15:59;;;;;;;9.80;5.00;;;;;;;26.74;47.71;99151.63;233019;1217;138655;-57
2022/06/27 08:21:03;;;;;;;7.90;5.90;;;;;;;26.82;47.38;99148.44;233343;1217;138627;-57
2022/06/27 08:26:08;;;;;;;9.90;5.90;;;;;;;26.95;47.48;99156.73;233339;1217;139422;-58
2022/06/27 08:31:12;;;;;;;10.00;5.40;;;;;;;27.05;47.36;99144.71;233476;1217;140229;-57
2022/06/27 08:36:17;;;;;;;247.10;202.30;;;;;;;27.20;47.19;99147.38;233346;1217;139176;-57
2022/06/27 08:41:22;;;;;;;15.70;10.30;;;;;;;27.29;47.19;99147.05;233425;1219;139658;-57
2022/06/27 08:46:25;;;;;;;5.90;5.10;;;;;;;27.50;46.95;99156.73;233378;1217;138774;-57
2022/06/27 08:51:29;;;;;;;7.00;4.20;;;;;;;27.65;46.67;99151.83;233423;1217;138642;-58
2022/06/27 08:56:32;;;;;;;8.90;4.40;;;;;;;27.71;46.48;99146.02;233516;1217;138615;-58
2022/06/27 09:01:36;;;;;;;8.70;4.70;;;;;;;27.77;46.19;99142.68;233540;1217;138193;-57
2022/06/27 09:06:42;;;;;;;6.00;4.40;;;;;;;27.94;45.83;99141.87;233336;1217;138566;-57
2022/06/27 09:11:46;;;;;;;8.40;5.00;;;;;;;28.03;45.76;99132.93;233408;1217;138173;-58
2022/06/27 09:16:57;;;;;;;9.10;5.40;;;;;;;28.16;45.40;99136.55;233500;1217;138827;-57
2022/06/27 09:22:12;;;;;;;11.00;5.60;;;;;;;28.18;45.20;99132.23;233360;1218;139741;-57
2022/06/27 09:27:38;;;;;;;6.90;5.20;;;;;;;28.28;44.98;99128.25;233492;1217;139049;-56
2022/06/27 09:32:41;;;;;;;8.10;5.40;;;;;;;28.39;44.98;99120.62;233479;1217;138847;-58
2022/06/27 09:37:55;;;;;;;10.10;5.10;;;;;;;28.66;45.05;99122.88;233458;1217;138722;-58
2022/06/27 09:43:00;;;;;;;11.30;4.40;;;;;;;28.96;44.77;99120.37;233362;1217;139452;-57
2022/06/27 09:48:06;;;;;;;10.00;4.10;;;;;;;29.21;44.37;99119.13;233576;1217;139140;-57
2022/06/27 09:53:10;;;;;;;8.20;3.70;;;;;;;29.44;43.93;99113.34;233675;1217;139222;-57
2022/06/27 09:58:13;;;;;;;7.40;4.00;;;;;;;29.72;43.72;99114.58;233379;1217;139190;-56
2022/06/27 10:03:16;;;;;;;9.70;4.90;;;;;;;29.94;43.48;99112.00;233424;1218;138466;-57
2022/06/27 10:08:20;;;;;;;9.90;4.30;;;;;;;30.11;43.29;99113.30;233365;1218;138561;-57
2022/06/27 10:13:23;;;;;;;9.10;4.30;;;;;;;30.29;42.55;99101.09;233417;1219;138358;-59
2022/06/27 10:18:26;;;;;;;8.50;4.30;;;;;;;30.53;42.46;99098.19;233377;1215;139138;-57
2022/06/27 10:23:31;;;;;;;6.80;3.80;;;;;;;30.72;42.51;99087.84;233508;1217;138720;-56
2022/06/27 10:28:36;;;;;;;4.60;3.80;;;;;;;31.05;42.03;99094.45;233571;1217;139278;-55
2022/06/27 10:33:39;;;;;;;6.20;3.70;;;;;;;31.24;40.96;99090.71;233549;1217;138886;-55
2022/06/27 10:38:45;;;;;;;4.90;3.80;;;;;;;31.32;40.04;99087.08;233493;1217;230502;-56
2022/06/27 10:43:49;;;;;;;6.40;3.90;;;;;;;31.41;39.89;99075.79;233462;1217;138415;-56
2022/06/27 10:48:53;;;;;;;;;;;;;;;31.56;39.62;99075.31;233351;1217;138993;-57
2022/06/27 10:53:59;;;;;;;9.90;4.00;;;;;;;31.64;39.87;99069.89;233637;1217;125153;-57
2022/06/27 10:59:14;;;;;;;6.90;3.80;;;;;;;31.76;39.17;99075.17;233630;1217;139276;-58
2022/06/27 11:04:29;;;;;;;6.70;3.50;;;;;;;31.90;38.86;99067.43;233439;1217;139191;-56
2022/06/27 11:09:50;;;;;;;4.60;3.90;;;;;;;32.09;38.79;99060.18;233313;1217;138958;-56
2022/06/27 11:14:57;;;;;;;7.40;3.70;;;;;;;32.23;38.22;99045.32;233434;1217;138652;-56
2022/06/27 11:20:16;;;;;;;7.60;3.40;;;;;;;32.45;38.05;99041.77;233416;1217;139127;-57
2022/06/27 11:25:41;;;;;;;5.10;3.90;;;;;;;32.56;37.85;99033.73;233083;1217;138204;-57
2022/06/27 11:36:11;;;;;;;5.00;3.70;;;;;;;32.85;37.28;99027.35;233548;1217;138524;-58
2022/06/27 11:41:24;;;;;;;6.40;3.40;;;;;;;33.06;36.98;99030.84;233628;1215;138490;-58
2022/06/27 11:46:46;;;;;;;5.70;4.00;;;;;;;33.20;36.87;99019.40;233463;1217;140561;-58
2022/06/27 11:51:50;;;;;;;10.30;5.30;;;;;;;33.23;35.76;99020.57;233528;1217;139600;-58
2022/06/27 11:56:53;;;;;;;9.50;4.20;;;;;;;33.29;35.46;99021.91;233528;1215;139012;-57
2022/06/27 12:02:02;;;;;;;8.80;4.10;;;;;;;33.44;35.34;99016.33;233664;1216;138891;-57
2022/06/27 12:07:08;;;;;;;7.30;4.00;;;;;;;33.64;35.14;99011.46;233379;1217;138865;-57
2022/06/27 12:12:17;;;;;;;7.60;4.40;;;;;;;33.81;34.61;99005.78;233522;1216;138403;-57
2022/06/27 12:17:21;;;;;;;12.20;4.90;;;;;;;34.04;34.43;98999.02;233720;1217;138389;-57
2022/06/27 12:22:24;;;;;;;9.20;4.20;;;;;;;34.25;34.42;98994.75;233557;1217;138783;-58
2022/06/27 12:27:46;;;;;;;5.30;3.60;;;;;;;34.44;34.11;98994.35;233597;1217;138263;-57
2022/06/27 12:32:49;;;;;;;;;;;;;;;34.30;33.78;98989.04;233559;1217;139231;-58
2022/06/27 12:38:01;;;;;;;6.90;3.90;;;;;;;33.89;33.50;98983.81;233623;1217;126368;-56
2022/06/27 12:43:05;;;;;;;7.20;3.80;;;;;;;33.76;33.98;98980.98;233497;1217;138532;-57
2022/06/27 12:48:09;;;;;;;;;;;;;;;33.99;34.24;98974.67;233586;1216;138802;-57
2022/06/27 12:53:12;;;;;;;5.30;3.90;;;;;;;34.19;34.07;98973.59;233566;1217;125197;-56
2022/06/27 12:58:17;;;;;;;6.70;3.90;;;;;;;33.95;33.62;98977.81;233899;1216;139101;-57
2022/06/27 13:03:20;;;;;;;4.40;3.20;;;;;;;33.55;33.53;98987.69;234128;1216;138386;-57
2022/06/27 13:08:24;;;;;;;6.00;3.40;;;;;;;33.39;33.67;98981.05;234207;1216;138545;-58
2022/06/27 13:13:27;;;;;;;5.00;3.50;;;;;;;33.40;33.86;98975.85;233989;1216;138839;-57
2022/06/27 13:18:30;;;;;;;5.30;3.80;;;;;;;33.44;34.07;98978.02;234091;1215;139635;-57
2022/06/27 13:23:33;;;;;;;7.30;3.90;;;;;;;33.44;34.00;98977.36;234044;1216;138974;-57
2022/06/27 13:28:56;;;;;;;5.90;3.30;;;;;;;33.47;34.03;98970.43;234159;1216;138462;-57
2022/06/27 13:33:59;;;;;;;5.50;3.30;;;;;;;33.56;34.02;98970.50;234117;1216;138742;-58
2022/06/27 13:39:02;;;;;;;6.30;3.50;;;;;;;33.63;33.37;98974.29;234124;1216;138472;-58
2022/06/27 13:44:06;;;;;;;6.60;3.50;;;;;;;33.68;33.56;98970.35;234083;1216;138743;-58
2022/06/27 13:49:09;;;;;;;7.40;3.00;;;;;;;33.78;33.66;98968.05;234208;1215;140385;-58
2022/06/27 13:54:11;;;;;;;4.20;3.20;;;;;;;33.87;33.60;98968.70;233985;1216;138254;-58
2022/06/27 13:59:16;;;;;;;4.30;3.30;;;;;;;33.81;33.47;98964.67;234136;1216;138199;-57
2022/06/27 14:04:19;;;;;;;4.20;3.20;;;;;;;33.75;33.24;98970.27;234200;1216;138906;-57
2022/06/27 14:09:22;;;;;;;7.50;3.60;;;;;;;33.76;33.48;98958.91;234205;1216;138526;-58
2022/06/27 14:14:25;;;;;;;3.70;3.10;;;;;;;33.80;33.50;98957.77;234089;1216;138975;-57
2022/06/27 14:19:28;;;;;;;7.40;3.50;;;;;;;33.80;33.63;98958.13;234099;1216;138604;-57
2022/06/27 14:24:32;;;;;;;4.70;2.90;;;;;;;33.78;33.19;98959.54;234172;1216;139487;-57
2022/06/27 14:29:36;;;;;;;5.00;3.10;;;;;;;33.62;32.99;98958.85;234036;1216;138668;-57
2022/06/27 14:34:39;;;;;;;6.90;3.80;;;;;;;33.28;32.79;98957.58;234236;1217;139319;-58
2022/06/27 14:39:42;;;;;;;4.00;3.60;;;;;;;33.12;33.21;98959.94;234147;1216;140066;-58
2022/06/27 14:44:45;;;;;;;3.60;3.20;;;;;;;32.94;33.31;98956.17;234173;1216;139042;-59
2022/06/27 14:49:49;;;;;;;4.20;3.10;;;;;;;32.73;33.35;98953.04;234251;1216;138500;-57
2022/06/27 14:54:52;;;;;;;4.90;3.20;;;;;;;32.56;33.52;98956.29;234111;1216;139182;-58
2022/06/27 14:59:55;;;;;;;6.50;3.60;;;;;;;32.44;33.73;98948.55;234082;1216;140165;-58
2022/06/27 15:04:58;;;;;;;3.90;3.00;;;;;;;32.42;33.84;98950.77;234271;1217;138361;-57
2022/06/27 15:10:05;;;;;;;3.90;3.20;;;;;;;32.35;33.77;98943.37;234208;1214;139486;-58
2022/06/27 15:15:09;;;;;;;4.20;3.00;;;;;;;32.26;33.89;98948.66;234022;1216;138771;-59
2022/06/27 15:20:13;;;;;;;6.90;3.40;;;;;;;32.19;33.88;98947.06;233887;1216;138892;-58
2022/06/27 15:25:17;;;;;;;7.90;3.30;;;;;;;32.16;33.89;98948.02;234196;1216;138536;-58
2022/06/27 15:30:20;;;;;;;5.20;2.80;;;;;;;32.09;33.97;98946.65;234042;1216;139063;-57
2022/06/27 15:42:20;;;;;;;8.20;3.10;;;;;;;31.81;33.90;98950.69;234070;1216;138718;-57
2022/06/27 15:47:24;;;;;;;6.50;2.90;;;;;;;31.70;34.02;98951.45;234139;1216;139033;-57
2022/06/27 15:53:23;;;;;;;4.90;3.40;;;;;;;31.67;34.13;98948.27;234062;1216;138263;-58
2022/06/27 15:58:28;;;;;;;8.00;3.30;;;;;;;31.64;34.23;98943.73;234100;1216;138456;-55
2022/06/27 16:03:32;;;;;;;4.50;3.30;;;;;;;31.62;34.19;98945.83;234019;1215;138463;-57
2022/06/27 16:08:35;;;;;;;5.70;3.10;;;;;;;31.62;34.28;98951.77;234120;1216;139188;-57
2022/06/27 16:20:38;;;;;;;175.10;156.10;;;;;;;31.48;34.17;98946.27;233842;1217;138638;-58
2022/06/27 16:25:42;;;;;;;9.80;7.70;;;;;;;31.50;34.36;98947.88;234061;1215;140185;-59
2022/06/27 16:36:07;;;;;;;5.50;3.80;;;;;;;31.36;34.22;98933.82;234167;1215;138681;-58
2022/06/27 17:09:41;;;;;;;22.50;17.00;;;;;;;31.07;34.12;98938.77;234103;1216;138544;-56
2022/06/27 17:14:44;;;;;;;51.00;43.50;;;;;;;31.09;34.35;98944.61;234041;1217;139028;-56
2022/06/27 17:19:47;;;;;;;6.10;5.30;;;;;;;31.09;34.34;98939.09;233966;1215;139406;-59
2022/06/27 17:24:50;;;;;;;7.70;3.80;;;;;;;31.06;34.40;98942.44;234136;1216;138800;-57
2022/06/27 17:29:53;;;;;;;9.40;3.80;;;;;;;31.03;34.61;98945.64;234059;1216;139030;-56
2022/06/27 17:34:57;;;;;;;6.20;3.50;;;;;;;30.99;34.27;98952.16;233882;1217;137981;-57
2022/06/27 17:40:00;;;;;;;74.00;65.30;;;;;;;30.98;34.46;98951.20;233591;1216;138709;-57
2022/06/27 17:45:04;;;;;;;23.40;14.20;;;;;;;30.99;34.65;98950.85;233516;1217;138963;-57
2022/06/27 17:50:08;;;;;;;4.80;4.20;;;;;;;31.01;34.79;98955.69;233368;1217;139373;-57
2022/06/27 17:55:13;;;;;;;9.50;5.30;;;;;;;30.99;34.83;98952.20;233513;1217;138984;-58
2022/06/27 18:00:17;;;;;;;24.90;22.20;;;;;;;30.94;34.86;98954.38;233425;1217;138757;-57
2022/06/27 18:05:20;;;;;;;250.30;209.50;;;;;;;30.97;35.02;98955.56;233584;1216;139237;-59
2022/06/27 18:10:23;;;;;;;12.80;10.60;;;;;;;30.99;34.98;98958.85;233579;1216;139334;-58
2022/06/27 18:15:26;;;;;;;6.40;4.40;;;;;;;30.95;35.10;98960.71;233494;1217;139257;-59
2022/06/27 18:20:29;;;;;;;52.70;46.80;;;;;;;30.84;34.80;98964.48;233607;1217;139582;-58
2022/06/27 18:25:33;;;;;;;9.30;5.10;;;;;;;30.71;34.97;98965.27;233609;1217;139245;-57
2022/06/27 18:30:38;;;;;;;13.00;6.20;;;;;;;30.62;35.34;98976.08;233554;1217;139044;-58
2022/06/27 18:35:53;;;;;;;7.10;4.20;;;;;;;30.52;35.46;98976.52;233567;1217;138621;-58
2022/06/27 18:40:57;;;;;;;10.00;3.90;;;;;;;30.43;35.48;98979.42;233511;1217;140244;-57
2022/06/27 18:46:00;;;;;;;5.80;3.00;;;;;;;30.30;35.70;98984.38;233516;1217;139015;-58
2022/06/27 18:51:03;;;;;;;5.10;2.90;;;;;;;30.20;35.37;98991.23;233382;1217;138706;-58
2022/06/27 18:56:07;;;;;;;4.50;3.10;;;;;;;30.10;35.56;98993.69;233425;1217;138975;-57
2022/06/27 19:01:10;;;;;;;77.90;67.00;;;;;;;30.02;35.91;99009.04;233406;1217;139037;-56
2022/06/27 19:06:13;;;;;;;15.20;13.60;;;;;;;29.93;36.06;99018.52;233457;1216;140050;-57
2022/06/27 19:11:17;;;;;;;235.60;209.60;;;;;;;29.83;35.98;99026.56;233613;1217;139884;-57
2022/06/27 19:16:21;;;;;;;24.40;20.10;;;;;;;29.75;36.05;99036.78;233538;1217;138981;-56
2022/06/27 19:21:25;;;;;;;73.70;65.90;;;;;;;29.65;36.47;99037.83;233561;1217;139473;-56
2022/06/27 19:26:28;;;;;;;17.50;12.50;;;;;;;29.54;36.41;99038.42;233614;1217;139483;-57
2022/06/27 19:31:36;;;;;;;7.10;4.50;;;;;;;29.44;36.61;99040.35;233350;1217;139415;-56
2022/06/27 19:36:39;;;;;;;7.90;3.50;;;;;;;29.34;36.69;99046.46;233517;1217;138857;-54
2022/06/27 19:41:43;;;;;;;4.50;3.20;;;;;;;29.24;36.84;99048.17;233486;1217;138642;-56
2022/06/27 19:46:46;;;;;;;4.60;3.50;;;;;;;29.11;36.97;99043.92;233621;1217;138878;-56
2022/06/27 19:51:49;;;;;;;7.30;3.70;;;;;;;28.99;37.17;99050.39;233381;1217;138275;-56
2022/06/27 19:56:52;;;;;;;7.10;3.30;;;;;;;28.87;37.38;99052.15;233439;1217;138421;-56
2022/06/27 20:01:55;;;;;;;5.30;3.80;;;;;;;28.80;37.60;99058.13;233554;1217;138946;-56
2022/06/27 20:12:19;;;;;;;11.00;3.80;;;;;;;28.56;38.03;99055.55;233647;1217;138998;-56
2022/06/27 20:17:23;;;;;;;7.90;3.50;;;;;;;28.46;38.20;99047.71;233651;1217;138940;-56
2022/06/27 20:22:27;;;;;;;7.60;3.50;;;;;;;28.36;38.43;99045.70;233440;1217;139079;-56
2022/06/27 20:27:31;;;;;;;;;;;;;;;28.24;38.57;99044.94;233382;1217;138665;-57
2022/06/27 20:32:34;;;;;;;9.80;3.60;;;;;;;28.14;38.74;99047.92;233378;1217;124584;-57
2022/06/27 20:37:39;;;;;;;8.50;3.90;;;;;;;28.04;38.89;99044.45;233465;1217;139004;-56
2022/06/27 20:42:42;;;;;;;6.30;3.40;;;;;;;27.96;39.04;99045.02;233523;1217;138694;-56
2022/06/27 20:47:46;;;;;;;9.30;3.60;;;;;;;27.87;39.22;99027.16;233582;1217;138422;-55
2022/06/27 20:52:49;;;;;;;7.10;3.60;;;;;;;27.84;39.52;99024.30;233627;1217;138674;-57
2022/06/27 20:57:52;;;;;;;7.50;3.70;;;;;;;27.78;39.51;99022.82;233443;1217;138463;-56
2022/06/27 21:02:55;;;;;;;5.70;3.60;;;;;;;27.78;39.68;99030.91;233470;1217;139015;-56
2022/06/27 21:13:20;;;;;;;6.50;3.60;;;;;;;27.69;39.85;99022.45;233504;1217;138853;-55
2022/06/27 21:18:23;;;;;;;5.90;3.60;;;;;;;27.62;40.05;99023.77;233381;1217;139258;-55
2022/06/27 21:23:26;;;;;;;6.30;3.80;;;;;;;27.53;40.19;99025.13;233681;1217;139221;-57
2022/06/27 21:28:29;;;;;;;7.40;4.80;;;;;;;27.46;40.55;99024.98;233690;1217;138498;-56
2022/06/27 21:33:32;;;;;;;5.30;3.70;;;;;;;27.41;40.56;99023.62;233348;1217;139926;-57
2022/06/27 21:38:35;;;;;;;5.70;3.70;;;;;;;27.32;40.67;99012.18;233410;1217;139766;-56
2022/06/27 21:43:39;;;;;;;7.00;3.80;;;;;;;27.26;40.94;99016.90;233477;1217;138518;-56
2022/06/27 21:48:42;;;;;;;7.80;4.10;;;;;;;27.18;41.05;99018.63;233560;1217;138772;-57
2022/06/27 21:53:45;;;;;;;7.00;3.70;;;;;;;27.11;41.34;99015.20;233341;1217;138974;-56
2022/06/27 21:58:48;;;;;;;6.10;3.70;;;;;;;27.03;41.42;99010.41;233520;1216;138857;-55
2022/06/27 22:03:51;;;;;;;8.30;3.80;;;;;;;26.96;41.82;99004.48;233490;1217;138782;-56
2022/06/27 22:08:54;;;;;;;5.50;3.50;;;;;;;26.87;42.00;99005.74;233565;1216;138679;-56
2022/06/27 22:13:58;;;;;;;6.20;3.60;;;;;;;26.80;42.25;99021.06;233366;1217;138379;-57
2022/06/27 22:19:01;;;;;;;;;;;;;;;26.70;42.39;99017.67;233516;1217;138729;-58
2022/06/27 22:24:13;;;;;;;7.40;3.40;;;;;;;26.60;42.54;99019.88;233589;1217;125141;-57
2022/06/27 22:29:16;;;;;;;4.90;3.60;;;;;;;26.47;42.75;99014.40;233704;1217;138670;-56
2022/06/27 22:34:21;;;;;;;;;;;;;;;26.40;42.99;99017.23;233348;1217;139072;-56
2022/06/27 22:39:23;;;;;;;6.20;3.80;;;;;;;26.30;43.18;99013.66;233538;1217;125242;-57
2022/06/27 22:44:26;;;;;;;7.20;3.70;;;;;;;26.24;43.21;99018.52;233399;1216;139240;-58
2022/06/27 22:49:31;;;;;;;5.50;3.80;;;;;;;26.16;43.71;99020.25;233644;1217;138588;-55
2022/06/27 22:54:34;;;;;;;6.90;4.00;;;;;;;26.13;43.91;99024.42;233449;1217;138888;-56
2022/06/27 22:59:38;;;;;;;6.70;3.60;;;;;;;26.09;43.95;99022.40;233391;1217;138857;-55
2022/06/27 23:04:41;;;;;;;10.20;4.50;;;;;;;26.08;43.98;99032.31;233482;1217;138967;-56
2022/06/27 23:09:44;;;;;;;6.10;3.30;;;;;;;26.01;44.27;99037.34;233826;1216;138751;-56
2022/06/27 23:14:47;;;;;;;7.30;3.50;;;;;;;25.96;44.37;99043.88;234061;1217;139573;-56
2022/06/27 23:19:50;;;;;;;8.30;4.00;;;;;;;25.88;44.39;99042.30;234129;1217;139897;-56
2022/06/27 23:24:53;;;;;;;6.50;3.60;;;;;;;25.77;44.66;99047.68;234031;1217;138431;-57
2022/06/27 23:29:56;;;;;;;8.60;3.90;;;;;;;25.68;45.10;99046.95;234138;1217;138639;-58
2022/06/27 23:34:59;;;;;;;6.30;3.90;;;;;;;25.60;45.20;99051.84;234118;1217;139086;-57
2022/06/27 23:40:03;;;;;;;4.10;3.70;;;;;;;25.50;45.44;99053.81;234121;1217;138376;-59
2022/06/27 23:45:06;;;;;;;8.10;3.90;;;;;;;25.44;45.61;99049.43;234143;1216;138229;-58
2022/06/27 23:50:09;;;;;;;8.30;4.50;;;;;;;25.35;45.76;99040.93;234141;1217;139514;-61
2022/06/27 23:55:12;;;;;;;6.90;3.90;;;;;;;25.30;46.05;99042.13;234091;1216;140262;-59
